sensor_id;sensor_type;location;lat;lon;timestamp;pressure;altitude;pressure_sealevel;temperature;humidity
30897;BME280;64229;52.246;21.054;2024-01-30T00:00:54;102337.47;;;-0.42;100.00
30897;BME280;64229;52.246;21.054;2024-01-30T00:03:19;102323.56;;;-0.52;100.00
30897;BME280;64229;52.246;21.054;2024-01-30T00:05:44;102326.53;;;-0.37;100.00
30897;BME280;64229;52.246;21.054;2024-01-30T00:08:10;102321.78;;;-0.24;100.00
30897;BME280;64229;52.246;21.054;2024-01-30T00:10:35;102294.56;;;-0.50;100.00
30897;BME280;64229;52.246;21.054;2024-01-30T00:13:01;102315.50;;;-0.41;100.00
30897;BME280;64229;52.246;21.054;2024-01-30T00:15:27;102320.75;;;-0.41;100.00
30897;BME280;64229;52.246;21.054;2024-01-30T00:17:53;102319.06;;;-0.32;100.00
30897;BME280;64229;52.246;21.054;2024-01-30T00:20:18;102313.72;;;-0.40;100.00
30897;BME280;64229;52.246;21.054;2024-01-30T00:22:44;102314.28;;;-0.46;100.00
30897;BME280;64229;52.246;21.054;2024-01-30T00:25:09;102294.91;;;-0.36;100.00
30897;BME280;64229;52.246;21.054;2024-01-30T00:27:35;102318.84;;;-0.11;100.00
30897;BME280;64229;52.246;21.054;2024-01-30T00:30:00;102314.66;;;-0.32;100.00
30897;BME280;64229;52.246;21.054;2024-01-30T00:32:26;102318.41;;;-0.44;100.00
30897;BME280;64229;52.246;21.054;2024-01-30T00:34:51;102313.16;;;-0.44;100.00
30897;BME280;64229;52.246;21.054;2024-01-30T00:37:16;102314.41;;;-0.38;100.00
30897;BME280;64229;52.246;21.054;2024-01-30T00:39:42;102309.81;;;-0.36;100.00
30897;BME280;64229;52.246;21.054;2024-01-30T00:42:07;102297.00;;;-0.39;100.00
30897;BME280;64229;52.246;21.054;2024-01-30T00:44:35;102300.75;;;-0.42;100.00
30897;BME280;64229;52.246;21.054;2024-01-30T00:47:02;102303.31;;;-0.32;100.00
30897;BME280;64229;52.246;21.054;2024-01-30T00:49:28;102287.34;;;-0.39;100.00
30897;BME280;64229;52.246;21.054;2024-01-30T00:51:53;102298.91;;;-0.32;100.00
30897;BME280;64229;52.246;21.054;2024-01-30T01:56:11;102283.19;;;-0.88;100.00
30897;BME280;64229;52.246;21.054;2024-01-30T01:58:37;102279.34;;;-0.84;100.00
30897;BME280;64229;52.246;21.054;2024-01-30T02:01:03;102270.66;;;-0.94;100.00
30897;BME280;64229;52.246;21.054;2024-01-30T02:03:30;102274.34;;;-0.87;100.00
30897;BME280;64229;52.246;21.054;2024-01-30T02:05:56;102273.13;;;-0.93;100.00
30897;BME280;64229;52.246;21.054;2024-01-30T02:08:22;102273.38;;;-0.86;100.00
30897;BME280;64229;52.246;21.054;2024-01-30T02:10:48;102272.94;;;-0.72;100.00
30897;BME280;64229;52.246;21.054;2024-01-30T02:13:13;102275.44;;;-0.80;100.00
30897;BME280;64229;52.246;21.054;2024-01-30T02:15:39;102266.59;;;-0.79;100.00
30897;BME280;64229;52.246;21.054;2024-01-30T02:18:04;102252.56;;;-0.88;100.00
30897;BME280;64229;52.246;21.054;2024-01-30T02:20:30;102267.28;;;-0.77;100.00
30897;BME280;64229;52.246;21.054;2024-01-30T02:22:58;102263.13;;;-0.70;100.00
30897;BME280;64229;52.246;21.054;2024-01-30T02:25:40;102258.34;;;-0.74;100.00
30897;BME280;64229;52.246;21.054;2024-01-30T02:28:12;102260.38;;;-0.68;100.00
30897;BME280;64229;52.246;21.054;2024-01-30T02:30:38;102255.41;;;-0.71;100.00
30897;BME280;64229;52.246;21.054;2024-01-30T02:33:04;102264.09;;;-0.71;100.00
30897;BME280;64229;52.246;21.054;2024-01-30T02:35:29;102272.09;;;-0.63;100.00
30897;BME280;64229;52.246;21.054;2024-01-30T02:37:55;102264.09;;;-0.71;100.00
30897;BME280;64229;52.246;21.054;2024-01-30T02:40:20;102263.56;;;-0.74;100.00
30897;BME280;64229;52.246;21.054;2024-01-30T02:42:45;102262.47;;;-0.81;100.00
30897;BME280;64229;52.246;21.054;2024-01-30T02:45:11;102267.03;;;-0.83;100.00
30897;BME280;64229;52.246;21.054;2024-01-30T02:47:36;102262.16;;;-0.69;100.00
30897;BME280;64229;52.246;21.054;2024-01-30T02:50:02;102261.63;;;-0.72;100.00
30897;BME280;64229;52.246;21.054;2024-01-30T02:52:28;102260.38;;;-0.68;100.00
30897;BME280;64229;52.246;21.054;2024-01-30T02:54:53;102264.19;;;-0.53;100.00
30897;BME280;64229;52.246;21.054;2024-01-30T02:57:18;102263.13;;;-0.60;100.00
30897;BME280;64229;52.246;21.054;2024-01-30T02:59:44;102254.72;;;-0.64;100.00
30897;BME280;64229;52.246;21.054;2024-01-30T03:02:09;102262.03;;;-0.67;100.00
30897;BME280;64229;52.246;21.054;2024-01-30T03:04:34;102273.94;;;-0.82;100.00
30897;BME280;64229;52.246;21.054;2024-01-30T03:07:00;102268.84;;;-0.84;100.00
30897;BME280;64229;52.246;21.054;2024-01-30T03:09:25;102265.75;;;-0.70;100.00
30897;BME280;64229;52.246;21.054;2024-01-30T03:11:50;102256.56;;;-0.83;100.00
30897;BME280;64229;52.246;21.054;2024-01-30T03:14:16;102266.22;;;-0.94;100.00
30897;BME280;64229;52.246;21.054;2024-01-30T03:16:41;102256.84;;;-0.96;100.00
30897;BME280;64229;52.246;21.054;2024-01-30T03:19:07;102260.72;;;-1.00;100.00
30897;BME280;64229;52.246;21.054;2024-01-30T03:21:35;102260.19;;;-1.04;100.00
30897;BME280;64229;52.246;21.054;2024-01-30T03:24:00;102250.78;;;-1.06;100.00
30897;BME280;64229;52.246;21.054;2024-01-30T03:26:26;102252.88;;;-1.10;100.00
30897;BME280;64229;52.246;21.054;2024-01-30T03:28:51;102248.31;;;-1.08;100.00
30897;BME280;64229;52.246;21.054;2024-01-30T03:31:17;102255.09;;;-1.05;100.00
30897;BME280;64229;52.246;21.054;2024-01-30T03:33:42;102255.47;;;-1.00;100.00
30897;BME280;64229;52.246;21.054;2024-01-30T03:36:08;102256.84;;;-0.96;100.00
30897;BME280;64229;52.246;21.054;2024-01-30T03:38:34;102263.63;;;-1.03;100.00
30897;BME280;64229;52.246;21.054;2024-01-30T03:41:00;102256.16;;;-1.08;100.00
30897;BME280;64229;52.246;21.054;2024-01-30T03:43:25;102251.38;;;-1.12;100.00
30897;BME280;64229;52.246;21.054;2024-01-30T03:45:51;102264.59;;;-0.95;100.00
30897;BME280;64229;52.246;21.054;2024-01-30T03:48:16;102253.97;;;-1.03;100.00
30897;BME280;64229;52.246;21.054;2024-01-30T03:50:42;102249.03;;;-1.15;100.00
30897;BME280;64229;52.246;21.054;2024-01-30T03:53:07;102248.34;;;-1.27;100.00
30897;BME280;64229;52.246;21.054;2024-01-30T03:55:32;102246.66;;;-1.09;100.00
30897;BME280;64229;52.246;21.054;2024-01-30T03:57:58;102245.59;;;-1.16;100.00
30897;BME280;64229;52.246;21.054;2024-01-30T04:00:23;102247.91;;;-1.13;100.00
30897;BME280;64229;52.246;21.054;2024-01-30T04:02:49;102241.44;;;-1.19;100.00
30897;BME280;64229;52.246;21.054;2024-01-30T04:05:16;102242.00;;;-1.15;100.00
30897;BME280;64229;52.246;21.054;2024-01-30T04:07:41;102244.88;;;-1.28;100.00
30897;BME280;64229;52.246;21.054;2024-01-30T04:10:07;102249.03;;;-1.25;100.00
30897;BME280;64229;52.246;21.054;2024-01-30T04:12:33;102250.69;;;-1.34;100.00
30897;BME280;64229;52.246;21.054;2024-01-30T04:14:58;102244.19;;;-1.30;100.00
30897;BME280;64229;52.246;21.054;2024-01-30T04:17:24;102236.91;;;-1.46;100.00
30897;BME280;64229;52.246;21.054;2024-01-30T04:19:49;102245.84;;;-1.29;100.00
30897;BME280;64229;52.246;21.054;2024-01-30T04:22:14;102247.94;;;-1.32;100.00
30897;BME280;64229;52.246;21.054;2024-01-30T04:24:39;102252.75;;;-1.28;100.00
30897;BME280;64229;52.246;21.054;2024-01-30T04:27:05;102245.84;;;-1.29;100.00
30897;BME280;64229;52.246;21.054;2024-01-30T04:29:30;102250.97;;;-1.37;100.00
30897;BME280;64229;52.246;21.054;2024-01-30T04:31:57;102262.13;;;-1.35;100.00
30897;BME280;64229;52.246;21.054;2024-01-30T04:34:22;102259.38;;;-1.43;100.00
30897;BME280;64229;52.246;21.054;2024-01-30T04:36:48;102237.06;;;-1.37;100.00
30897;BME280;64229;52.246;21.054;2024-01-30T04:39:13;102238.41;;;-1.33;100.00
30897;BME280;64229;52.246;21.054;2024-01-30T04:41:38;102248.47;;;-1.38;100.00
30897;BME280;64229;52.246;21.054;2024-01-30T04:44:04;102243.66;;;-1.43;100.00
30897;BME280;64229;52.246;21.054;2024-01-30T04:46:29;102242.97;;;-1.45;100.00
30897;BME280;64229;52.246;21.054;2024-01-30T04:48:54;102241.31;;;-1.46;100.00
30897;BME280;64229;52.246;21.054;2024-01-30T04:51:19;102243.66;;;-1.53;100.00
30897;BME280;64229;52.246;21.054;2024-01-30T04:53:45;102248.22;;;-1.45;100.00
30897;BME280;64229;52.246;21.054;2024-01-30T04:56:10;102241.03;;;-1.43;100.00
30897;BME280;64229;52.246;21.054;2024-01-30T04:58:36;102242.28;;;-1.47;100.00
30897;BME280;64229;52.246;21.054;2024-01-30T05:01:02;102222.41;;;-1.40;100.00
30897;BME280;64229;52.246;21.054;2024-01-30T05:03:27;102231.66;;;-1.26;100.00
30897;BME280;64229;52.246;21.054;2024-01-30T05:05:53;102242.16;;;-1.26;100.00
30897;BME280;64229;52.246;21.054;2024-01-30T05:08:18;102242.69;;;-1.32;100.00
30897;BME280;64229;52.246;21.054;2024-01-30T05:10:43;102220.78;;;-1.51;100.00
30897;BME280;64229;52.246;21.054;2024-01-30T05:13:09;102237.16;;;-1.20;100.00
30897;BME280;64229;52.246;21.054;2024-01-30T05:15:35;102235.94;;;-1.15;100.00
30897;BME280;64229;52.246;21.054;2024-01-30T05:18:00;102239.78;;;-1.29;100.00
30897;BME280;64229;52.246;21.054;2024-01-30T05:20:25;102210.88;;;-1.37;100.00
30897;BME280;64229;52.246;21.054;2024-01-30T05:22:53;102230.81;;;-1.17;100.00
30897;BME280;64229;52.246;21.054;2024-01-30T05:25:18;102239.91;;;-1.21;100.00
30897;BME280;64229;52.246;21.054;2024-01-30T05:27:44;102238.25;;;-1.03;100.00
30897;BME280;64229;52.246;21.054;2024-01-30T05:30:10;102231.91;;;-1.10;100.00
30897;BME280;64229;52.246;21.054;2024-01-30T05:32:35;102236.75;;;-1.15;100.00
30897;BME280;64229;52.246;21.054;2024-01-30T05:35:00;102238.56;;;-1.15;100.00
30897;BME280;64229;52.246;21.054;2024-01-30T05:37:26;102238.81;;;-1.19;100.00
30897;BME280;64229;52.246;21.054;2024-01-30T05:39:51;102238.94;;;-1.20;100.00
30897;BME280;64229;52.246;21.054;2024-01-30T05:42:17;102236.31;;;-1.10;100.00
30897;BME280;64229;52.246;21.054;2024-01-30T05:44:42;102240.06;;;-1.23;100.00
30897;BME280;64229;52.246;21.054;2024-01-30T05:47:07;102230.53;;;-1.14;100.00
30897;BME280;64229;52.246;21.054;2024-01-30T05:49:33;102244.31;;;-1.12;100.00
30897;BME280;64229;52.246;21.054;2024-01-30T05:51:58;102244.34;;;-1.22;100.00
30897;BME280;64229;52.246;21.054;2024-01-30T05:54:23;102249.28;;;-1.19;100.00
30897;BME280;64229;52.246;21.054;2024-01-30T05:56:49;102239.09;;;-1.31;100.00
30897;BME280;64229;52.246;21.054;2024-01-30T05:59:14;102240.75;;;-1.30;100.00
30897;BME280;64229;52.246;21.054;2024-01-30T06:01:46;102233.88;;;-1.31;100.00
30897;BME280;64229;52.246;21.054;2024-01-30T06:04:12;102224.63;;;-1.35;100.00
30897;BME280;64229;52.246;21.054;2024-01-30T06:06:37;102234.53;;;-1.10;100.00
30897;BME280;64229;52.246;21.054;2024-01-30T06:09:02;102242.25;;;-1.18;100.00
30897;BME280;64229;52.246;21.054;2024-01-30T06:11:28;102243.22;;;-1.29;100.00
30897;BME280;64229;52.246;21.054;2024-01-30T06:13:53;102243.50;;;-1.32;100.00
30897;BME280;64229;52.246;21.054;2024-01-30T06:16:18;102240.22;;;-1.34;100.00
30897;BME280;64229;52.246;21.054;2024-01-30T06:18:46;102233.19;;;-1.33;100.00
30897;BME280;64229;52.246;21.054;2024-01-30T06:21:12;102238.28;;;-1.41;100.00
30897;BME280;64229;52.246;21.054;2024-01-30T06:23:38;102226.56;;;-1.37;100.00
30897;BME280;64229;52.246;21.054;2024-01-30T06:26:03;102240.59;;;-1.29;100.00
30897;BME280;64229;52.246;21.054;2024-01-30T06:28:29;102237.44;;;-1.23;100.00
30897;BME280;64229;52.246;21.054;2024-01-30T06:30:54;102238.25;;;-1.12;100.00
30897;BME280;64229;52.246;21.054;2024-01-30T06:33:19;102236.31;;;-1.10;100.00
30897;BME280;64229;52.246;21.054;2024-01-30T06:35:45;102233.00;;;-1.03;100.00
30897;BME280;64229;52.246;21.054;2024-01-30T06:38:11;102229.88;;;-1.16;100.00
30897;BME280;64229;52.246;21.054;2024-01-30T06:40:36;102247.22;;;-1.05;100.00
30897;BME280;64229;52.246;21.054;2024-01-30T06:43:03;102247.63;;;-1.00;100.00
30897;BME280;64229;52.246;21.054;2024-01-30T06:45:29;102241.53;;;-1.01;100.00
30897;BME280;64229;52.246;21.054;2024-01-30T06:47:54;102251.19;;;-0.92;100.00
30897;BME280;64229;52.246;21.054;2024-01-30T06:50:20;102246.34;;;-0.87;100.00
30897;BME280;64229;52.246;21.054;2024-01-30T06:52:45;102241.50;;;-0.81;100.00
30897;BME280;64229;52.246;21.054;2024-01-30T06:55:11;102244.44;;;-0.94;100.00
30897;BME280;64229;52.246;21.054;2024-01-30T06:57:36;102245.28;;;-0.94;100.00
30897;BME280;64229;52.246;21.054;2024-01-30T07:00:02;102242.25;;;-1.08;100.00
30897;BME280;64229;52.246;21.054;2024-01-30T07:02:27;102240.28;;;-0.97;100.00
30897;BME280;64229;52.246;21.054;2024-01-30T07:04:53;102231.88;;;-1.00;100.00
30897;BME280;64229;52.246;21.054;2024-01-30T07:07:18;102250.22;;;-1.00;100.00
30897;BME280;64229;52.246;21.054;2024-01-30T07:09:44;102247.91;;;-1.03;100.00
30897;BME280;64229;52.246;21.054;2024-01-30T07:12:09;102252.28;;;-0.84;100.00
30897;BME280;64229;52.246;21.054;2024-01-30T07:14:35;102251.88;;;-0.90;100.00
30897;BME280;64229;52.246;21.054;2024-01-30T07:17:00;102253.69;;;-1.00;100.00
30897;BME280;64229;52.246;21.054;2024-01-30T07:19:26;102250.53;;;-1.03;100.00
30897;BME280;64229;52.246;21.054;2024-01-30T07:21:51;102250.91;;;-0.98;100.00
30897;BME280;64229;52.246;21.054;2024-01-30T07:24:16;102259.59;;;-0.98;100.00
30897;BME280;64229;52.246;21.054;2024-01-30T07:26:42;102259.25;;;-0.66;100.00
30897;BME280;64229;52.246;21.054;2024-01-30T07:29:07;102247.03;;;-0.47;100.00
30897;BME280;64229;52.246;21.054;2024-01-30T07:31:33;102245.13;;;-0.55;100.00
30897;BME280;64229;52.246;21.054;2024-01-30T07:33:58;102253.38;;;-0.40;100.00
30897;BME280;64229;52.246;21.054;2024-01-30T07:36:23;102247.47;;;-0.24;100.00
30897;BME280;64229;52.246;21.054;2024-01-30T07:38:49;102249.31;;;-0.35;100.00
30897;BME280;64229;52.246;21.054;2024-01-30T07:41:14;102256.38;;;-0.35;100.00
30897;BME280;64229;52.246;21.054;2024-01-30T07:43:39;102256.03;;;-0.22;100.00
30897;BME280;64229;52.246;21.054;2024-01-30T07:46:05;102256.91;;;-0.04;100.00
30897;BME280;64229;52.246;21.054;2024-01-30T07:48:32;102258.00;;;0.03;100.00
30897;BME280;64229;52.246;21.054;2024-01-30T07:50:59;102252.19;;;-0.01;100.00
30897;BME280;64229;52.246;21.054;2024-01-30T07:53:24;102258.34;;;0.08;100.00
30897;BME280;64229;52.246;21.054;2024-01-30T07:55:49;102248.09;;;0.15;100.00
30897;BME280;64229;52.246;21.054;2024-01-30T07:58:15;102245.00;;;0.19;100.00
30897;BME280;64229;52.246;21.054;2024-01-30T08:00:40;102244.28;;;0.27;100.00
30897;BME280;64229;52.246;21.054;2024-01-30T08:03:05;102245.50;;;0.33;100.00
30897;BME280;64229;52.246;21.054;2024-01-30T08:05:30;102244.06;;;0.38;100.00
30897;BME280;64229;52.246;21.054;2024-01-30T08:07:56;102249.09;;;0.49;100.00
30897;BME280;64229;52.246;21.054;2024-01-30T08:10:21;102244.72;;;0.58;100.00
30897;BME280;64229;52.246;21.054;2024-01-30T08:12:46;102243.06;;;0.75;100.00
30897;BME280;64229;52.246;21.054;2024-01-30T08:15:12;102247.63;;;0.91;100.00
30897;BME280;64229;52.246;21.054;2024-01-30T08:17:38;102235.53;;;0.98;100.00
30897;BME280;64229;52.246;21.054;2024-01-30T08:20:03;102239.34;;;1.29;100.00
30897;BME280;64229;52.246;21.054;2024-01-30T08:22:30;102240.03;;;1.39;100.00
30897;BME280;64229;52.246;21.054;2024-01-30T08:24:55;102238.88;;;1.76;98.86
30897;BME280;64229;52.246;21.054;2024-01-30T08:27:20;102236.16;;;1.94;97.19
30897;BME280;64229;52.246;21.054;2024-01-30T08:29:46;102227.63;;;2.08;95.05
30897;BME280;64229;52.246;21.054;2024-01-30T08:32:11;102229.06;;;1.94;96.23
30897;BME280;64229;52.246;21.054;2024-01-30T08:34:36;102226.81;;;2.16;95.21
30897;BME280;64229;52.246;21.054;2024-01-30T08:37:02;102227.97;;;2.13;96.08
30897;BME280;64229;52.246;21.054;2024-01-30T08:39:28;102240.19;;;2.47;92.53
30897;BME280;64229;52.246;21.054;2024-01-30T08:41:53;102182.53;;;2.19;92.24
30897;BME280;64229;52.246;21.054;2024-01-30T08:44:19;102240.53;;;2.60;91.64
30897;BME280;64229;52.246;21.054;2024-01-30T08:46:44;102234.91;;;2.63;91.87
30897;BME280;64229;52.246;21.054;2024-01-30T08:49:13;102244.50;;;2.56;92.20
30897;BME280;64229;52.246;21.054;2024-01-30T08:51:41;102245.47;;;2.55;93.26
30897;BME280;64229;52.246;21.054;2024-01-30T08:54:06;102238.22;;;2.65;92.03
30897;BME280;64229;52.246;21.054;2024-01-30T08:56:31;102239.34;;;2.87;90.21
30897;BME280;64229;52.246;21.054;2024-01-30T08:58:57;102235.06;;;2.86;90.81
30897;BME280;64229;52.246;21.054;2024-01-30T09:01:22;102232.78;;;2.91;90.29
30897;BME280;64229;52.246;21.054;2024-01-30T09:03:47;102236.53;;;2.97;90.68
30897;BME280;64229;52.246;21.054;2024-01-30T09:06:12;102227.97;;;3.03;90.54
30897;BME280;64229;52.246;21.054;2024-01-30T09:08:38;102244.44;;;3.13;89.95
30897;BME280;64229;52.246;21.054;2024-01-30T09:11:11;102230.09;;;3.15;89.82
30897;BME280;64229;52.246;21.054;2024-01-30T09:13:37;102242.91;;;3.35;88.53
30897;BME280;64229;52.246;21.054;2024-01-30T09:16:02;102242.34;;;3.56;85.64
30897;BME280;64229;52.246;21.054;2024-01-30T09:18:28;102232.63;;;3.48;87.12
30897;BME280;64229;52.246;21.054;2024-01-30T09:20:53;102234.59;;;3.62;86.42
30897;BME280;64229;52.246;21.054;2024-01-30T09:23:18;102237.50;;;3.75;85.75
30897;BME280;64229;52.246;21.054;2024-01-30T09:25:44;102210.75;;;3.70;85.50
30897;BME280;64229;52.246;21.054;2024-01-30T09:28:10;102234.28;;;3.88;84.87
30897;BME280;64229;52.246;21.054;2024-01-30T09:30:35;102231.66;;;3.88;85.31
30897;BME280;64229;52.246;21.054;2024-01-30T09:33:00;102231.06;;;4.01;84.35
30897;BME280;64229;52.246;21.054;2024-01-30T09:35:25;102228.22;;;4.11;83.39
30897;BME280;64229;52.246;21.054;2024-01-30T09:37:51;102226.09;;;4.06;84.18
30897;BME280;64229;52.246;21.054;2024-01-30T09:40:19;102224.66;;;4.26;82.62
30897;BME280;64229;52.246;21.054;2024-01-30T09:42:50;102218.69;;;4.24;83.05
30897;BME280;64229;52.246;21.054;2024-01-30T09:45:17;102224.34;;;4.44;81.52
30897;BME280;64229;52.246;21.054;2024-01-30T09:47:44;102209.53;;;4.35;82.54
30897;BME280;64229;52.246;21.054;2024-01-30T09:50:11;102216.41;;;4.44;81.88
30897;BME280;64229;52.246;21.054;2024-01-30T09:52:37;102217.41;;;4.43;82.52
30897;BME280;64229;52.246;21.054;2024-01-30T09:55:03;102213.94;;;4.43;82.90
30897;BME280;64229;52.246;21.054;2024-01-30T09:57:28;102201.50;;;4.51;82.17
30897;BME280;64229;52.246;21.054;2024-01-30T09:59:53;102217.34;;;4.74;80.81
30897;BME280;64229;52.246;21.054;2024-01-30T10:02:19;102187.47;;;4.65;80.91
30897;BME280;64229;52.246;21.054;2024-01-30T10:04:47;102208.38;;;5.13;77.91
30897;BME280;64229;52.246;21.054;2024-01-30T10:07:12;102205.25;;;5.09;77.95
30897;BME280;64229;52.246;21.054;2024-01-30T10:09:39;102199.22;;;5.01;78.88
30897;BME280;64229;52.246;21.054;2024-01-30T10:12:05;102199.31;;;5.07;79.03
30897;BME280;64229;52.246;21.054;2024-01-30T10:14:31;102198.78;;;5.27;77.50
30897;BME280;64229;52.246;21.054;2024-01-30T10:16:57;102197.88;;;5.34;76.35
30897;BME280;64229;52.246;21.054;2024-01-30T10:19:22;102199.13;;;5.38;76.65
30897;BME280;64229;52.246;21.054;2024-01-30T10:21:48;102199.31;;;5.37;77.29
30897;BME280;64229;52.246;21.054;2024-01-30T10:24:13;102192.00;;;5.54;75.29
30897;BME280;64229;52.246;21.054;2024-01-30T10:26:39;102188.16;;;5.56;75.85
30897;BME280;64229;52.246;21.054;2024-01-30T10:29:04;102186.47;;;5.70;75.14
30897;BME280;64229;52.246;21.054;2024-01-30T10:31:30;102184.38;;;5.80;74.24
30897;BME280;64229;52.246;21.054;2024-01-30T10:33:55;102181.81;;;5.72;75.00
30897;BME280;64229;52.246;21.054;2024-01-30T10:36:26;102176.59;;;5.78;74.77
30897;BME280;64229;52.246;21.054;2024-01-30T10:38:55;102175.84;;;5.85;74.68
30897;BME280;64229;52.246;21.054;2024-01-30T10:41:26;102168.44;;;5.95;73.74
30897;BME280;64229;52.246;21.054;2024-01-30T10:44:02;102167.31;;;6.04;72.98
30897;BME280;64229;52.246;21.054;2024-01-30T10:46:31;102170.03;;;6.11;72.66
30897;BME280;64229;52.246;21.054;2024-01-30T10:48:58;102163.41;;;6.21;72.72
30897;BME280;64229;52.246;21.054;2024-01-30T10:51:26;102165.13;;;6.29;72.02
30897;BME280;64229;52.246;21.054;2024-01-30T10:53:52;102163.63;;;6.48;70.22
30897;BME280;64229;52.246;21.054;2024-01-30T10:56:20;102164.44;;;6.48;70.28
30897;BME280;64229;52.246;21.054;2024-01-30T10:58:47;102165.09;;;6.50;70.16
30897;BME280;64229;52.246;21.054;2024-01-30T11:01:12;102152.41;;;6.46;70.33
30897;BME280;64229;52.246;21.054;2024-01-30T11:03:38;102147.81;;;6.33;69.94
30897;BME280;64229;52.246;21.054;2024-01-30T11:06:04;102154.34;;;6.37;71.11
30897;BME280;64229;52.246;21.054;2024-01-30T11:08:32;102147.81;;;6.33;69.29
30897;BME280;64229;52.246;21.054;2024-01-30T11:10:58;102143.94;;;6.35;70.96
30897;BME280;64229;52.246;21.054;2024-01-30T11:13:30;102149.38;;;6.49;70.96
30897;BME280;64229;52.246;21.054;2024-01-30T11:16:00;102136.06;;;6.70;69.31
30897;BME280;64229;52.246;21.054;2024-01-30T11:18:26;102139.91;;;6.67;68.94
30897;BME280;64229;52.246;21.054;2024-01-30T11:20:51;102140.78;;;6.75;68.22
30897;BME280;64229;52.246;21.054;2024-01-30T11:23:17;102133.78;;;7.02;66.49
30897;BME280;64229;52.246;21.054;2024-01-30T11:25:43;102129.75;;;7.06;66.43
30897;BME280;64229;52.246;21.054;2024-01-30T11:28:14;102122.78;;;7.05;66.20
30897;BME280;64229;52.246;21.054;2024-01-30T11:30:40;102130.50;;;7.00;66.95
30897;BME280;64229;52.246;21.054;2024-01-30T11:33:14;102123.81;;;7.10;66.32
30897;BME280;64229;52.246;21.054;2024-01-30T11:35:43;102120.72;;;7.00;66.31
30897;BME280;64229;52.246;21.054;2024-01-30T11:38:14;102109.47;;;6.98;67.09
30897;BME280;64229;52.246;21.054;2024-01-30T11:40:40;102109.53;;;7.05;65.72
30897;BME280;64229;52.246;21.054;2024-01-30T11:43:07;102109.34;;;7.13;67.02
30897;BME280;64229;52.246;21.054;2024-01-30T11:45:33;102113.28;;;7.23;66.29
30897;BME280;64229;52.246;21.054;2024-01-30T11:47:59;102101.81;;;7.16;66.69
30897;BME280;64229;52.246;21.054;2024-01-30T11:50:33;102101.66;;;7.31;66.70
30897;BME280;64229;52.246;21.054;2024-01-30T11:53:00;102097.81;;;7.34;66.24
30897;BME280;64229;52.246;21.054;2024-01-30T11:55:25;102099.06;;;7.44;65.48
30897;BME280;64229;52.246;21.054;2024-01-30T11:57:51;102101.97;;;7.63;64.13
30897;BME280;64229;52.246;21.054;2024-01-30T12:00:19;102097.47;;;7.63;64.41
30897;BME280;64229;52.246;21.054;2024-01-30T12:02:49;102103.81;;;7.69;63.49
30897;BME280;64229;52.246;21.054;2024-01-30T12:05:15;102099.97;;;7.78;63.03
30897;BME280;64229;52.246;21.054;2024-01-30T12:07:44;102099.31;;;7.69;62.54
30897;BME280;64229;52.246;21.054;2024-01-30T12:10:09;102083.75;;;7.60;63.98
30897;BME280;64229;52.246;21.054;2024-01-30T12:12:36;102073.34;;;7.65;63.25
30897;BME280;64229;52.246;21.054;2024-01-30T12:15:02;102084.63;;;7.87;63.08
30897;BME280;64229;52.246;21.054;2024-01-30T12:17:32;102089.13;;;7.86;62.76
30897;BME280;64229;52.246;21.054;2024-01-30T12:20:04;102087.28;;;7.93;62.76
30897;BME280;64229;52.246;21.054;2024-01-30T12:22:30;102080.34;;;7.92;62.19
30897;BME280;64229;52.246;21.054;2024-01-30T12:24:55;102074.63;;;8.08;61.28
30897;BME280;64229;52.246;21.054;2024-01-30T12:27:20;102086.28;;;8.01;61.78
30897;BME280;64229;52.246;21.054;2024-01-30T12:29:45;102086.28;;;8.01;62.39
30897;BME280;64229;52.246;21.054;2024-01-30T12:32:15;102090.38;;;8.10;61.74
30897;BME280;64229;52.246;21.054;2024-01-30T12:34:41;102091.00;;;8.12;61.67
30897;BME280;64229;52.246;21.054;2024-01-30T12:37:07;102081.78;;;8.01;62.30
30897;BME280;64229;52.246;21.054;2024-01-30T12:39:34;102078.28;;;8.07;62.45
30897;BME280;64229;52.246;21.054;2024-01-30T12:42:00;102080.94;;;8.27;60.57
30897;BME280;64229;52.246;21.054;2024-01-30T12:44:26;102080.34;;;8.25;60.82
30897;BME280;64229;52.246;21.054;2024-01-30T12:46:51;102074.63;;;8.35;60.23
30897;BME280;64229;52.246;21.054;2024-01-30T12:49:16;102064.22;;;8.40;60.24
30897;BME280;64229;52.246;21.054;2024-01-30T12:51:41;102073.59;;;8.56;59.24
30897;BME280;64229;52.246;21.054;2024-01-30T12:54:07;102062.75;;;8.44;60.25
30897;BME280;64229;52.246;21.054;2024-01-30T12:56:32;102069.53;;;8.40;60.85
30897;BME280;64229;52.246;21.054;2024-01-30T12:58:58;102059.88;;;8.39;60.58
30897;BME280;64229;52.246;21.054;2024-01-30T13:01:23;102070.31;;;8.27;61.46
30897;BME280;64229;52.246;21.054;2024-01-30T13:03:49;102051.06;;;8.19;61.89
30897;BME280;64229;52.246;21.054;2024-01-30T13:06:14;102053.75;;;8.19;61.46
30897;BME280;64229;52.246;21.054;2024-01-30T13:08:39;102047.81;;;8.23;61.07
30897;BME280;64229;52.246;21.054;2024-01-30T13:11:05;102053.75;;;8.19;61.01
30897;BME280;64229;52.246;21.054;2024-01-30T13:13:30;102054.78;;;8.04;61.75
30897;BME280;64229;52.246;21.054;2024-01-30T13:15:55;102056.81;;;8.02;62.38
30897;BME280;64229;52.246;21.054;2024-01-30T13:18:20;102064.78;;;8.16;61.56
30897;BME280;64229;52.246;21.054;2024-01-30T13:20:46;102061.94;;;8.37;59.82
30897;BME280;64229;52.246;21.054;2024-01-30T13:23:11;102065.22;;;8.39;59.78
30897;BME280;64229;52.246;21.054;2024-01-30T13:25:36;102061.13;;;8.23;60.81
30897;BME280;64229;52.246;21.054;2024-01-30T13:28:01;102062.31;;;8.27;61.21
30897;BME280;64229;52.246;21.054;2024-01-30T13:30:27;102056.41;;;8.32;60.44
30897;BME280;64229;52.246;21.054;2024-01-30T13:32:53;102060.50;;;8.15;60.42